sensor_id;sensor_type;location;lat;lon;timestamp;P1;durP1;ratioP1;P2;durP2;ratioP2
21091;SDS011;10704;42.678;23.288;2023-07-13T00:00:04;10.02;;;5.00;;
21091;SDS011;10704;42.678;23.288;2023-07-13T00:02:40;9.27;;;5.32;;
21091;SDS011;10704;42.678;23.288;2023-07-13T00:05:06;10.52;;;5.18;;
21091;SDS011;10704;42.678;23.288;2023-07-13T00:07:32;8.75;;;5.15;;
21091;SDS011;10704;42.678;23.288;2023-07-13T00:09:58;8.10;;;5.07;;
21091;SDS011;10704;42.678;23.288;2023-07-13T00:14:50;9.00;;;5.47;;
21091;SDS011;10704;42.678;23.288;2023-07-13T00:17:16;11.13;;;5.38;;
21091;SDS011;10704;42.678;23.288;2023-07-13T00:19:42;9.70;;;4.80;;
21091;SDS011;10704;42.678;23.288;2023-07-13T00:22:08;10.50;;;5.22;;
21091;SDS011;10704;42.678;23.288;2023-07-13T00:24:33;8.15;;;5.15;;
21091;SDS011;10704;42.678;23.288;2023-07-13T00:27:01;9.88;;;5.00;;
21091;SDS011;10704;42.678;23.288;2023-07-13T00:29:27;11.00;;;5.65;;
21091;SDS011;10704;42.678;23.288;2023-07-13T00:31:52;9.20;;;5.63;;
21091;SDS011;10704;42.678;23.288;2023-07-13T00:34:18;14.00;;;8.40;;
21091;SDS011;10704;42.678;23.288;2023-07-13T00:36:44;20.15;;;8.32;;
21091;SDS011;10704;42.678;23.288;2023-07-13T00:39:10;16.58;;;9.80;;
21091;SDS011;10704;42.678;23.288;2023-07-13T00:41:36;13.55;;;8.20;;
21091;SDS011;10704;42.678;23.288;2023-07-13T00:44:02;15.30;;;7.57;;
21091;SDS011;10704;42.678;23.288;2023-07-13T00:46:30;12.68;;;7.05;;
21091;SDS011;10704;42.678;23.288;2023-07-13T00:49:02;11.70;;;7.57;;
21091;SDS011;10704;42.678;23.288;2023-07-13T00:51:33;12.70;;;8.02;;
21091;SDS011;10704;42.678;23.288;2023-07-13T00:54:13;13.00;;;7.70;;
21091;SDS011;10704;42.678;23.288;2023-07-13T00:56:43;11.60;;;7.05;;
21091;SDS011;10704;42.678;23.288;2023-07-13T00:59:11;10.13;;;6.63;;
21091;SDS011;10704;42.678;23.288;2023-07-13T01:01:40;12.98;;;7.47;;
21091;SDS011;10704;42.678;23.288;2023-07-13T01:04:06;13.93;;;7.15;;
21091;SDS011;10704;42.678;23.288;2023-07-13T01:06:34;10.85;;;6.35;;
21091;SDS011;10704;42.678;23.288;2023-07-13T01:09:02;11.55;;;6.72;;
21091;SDS011;10704;42.678;23.288;2023-07-13T01:11:29;12.15;;;7.10;;
21091;SDS011;10704;42.678;23.288;2023-07-13T01:13:55;13.05;;;6.85;;
21091;SDS011;10704;42.678;23.288;2023-07-13T01:16:25;12.10;;;7.43;;
21091;SDS011;10704;42.678;23.288;2023-07-13T01:18:55;10.35;;;7.00;;
21091;SDS011;10704;42.678;23.288;2023-07-13T01:21:24;16.98;;;9.18;;
21091;SDS011;10704;42.678;23.288;2023-07-13T01:23:52;13.20;;;7.93;;
21091;SDS011;10704;42.678;23.288;2023-07-13T01:26:17;16.63;;;7.15;;
21091;SDS011;10704;42.678;23.288;2023-07-13T01:28:43;14.35;;;7.28;;
21091;SDS011;10704;42.678;23.288;2023-07-13T01:31:09;9.30;;;6.88;;
21091;SDS011;10704;42.678;23.288;2023-07-13T01:33:37;13.32;;;6.90;;
21091;SDS011;10704;42.678;23.288;2023-07-13T01:36:05;12.35;;;7.28;;
21091;SDS011;10704;42.678;23.288;2023-07-13T01:38:32;9.98;;;6.55;;
21091;SDS011;10704;42.678;23.288;2023-07-13T01:41:00;10.57;;;7.07;;
21091;SDS011;10704;42.678;23.288;2023-07-13T01:43:25;14.13;;;8.05;;
21091;SDS011;10704;42.678;23.288;2023-07-13T01:45:51;14.07;;;6.97;;
21091;SDS011;10704;42.678;23.288;2023-07-13T01:48:17;11.45;;;6.53;;
21091;SDS011;10704;42.678;23.288;2023-07-13T01:50:43;10.40;;;6.88;;
21091;SDS011;10704;42.678;23.288;2023-07-13T01:53:09;14.82;;;8.05;;
21091;SDS011;10704;42.678;23.288;2023-07-13T01:55:35;14.95;;;7.72;;
21091;SDS011;10704;42.678;23.288;2023-07-13T01:58:02;10.85;;;7.13;;
21091;SDS011;10704;42.678;23.288;2023-07-13T02:00:29;15.02;;;7.55;;
21091;SDS011;10704;42.678;23.288;2023-07-13T02:02:55;10.48;;;7.30;;
21091;SDS011;10704;42.678;23.288;2023-07-13T02:05:21;10.75;;;7.75;;
21091;SDS011;10704;42.678;23.288;2023-07-13T02:07:47;14.25;;;7.50;;
21091;SDS011;10704;42.678;23.288;2023-07-13T02:10:14;11.93;;;7.13;;
21091;SDS011;10704;42.678;23.288;2023-07-13T02:12:40;12.20;;;7.55;;
21091;SDS011;10704;42.678;23.288;2023-07-13T02:15:07;15.57;;;7.55;;
21091;SDS011;10704;42.678;23.288;2023-07-13T02:17:34;11.98;;;7.47;;
21091;SDS011;10704;42.678;23.288;2023-07-13T02:20:01;13.93;;;7.47;;
21091;SDS011;10704;42.678;23.288;2023-07-13T02:22:28;10.65;;;7.28;;
21091;SDS011;10704;42.678;23.288;2023-07-13T02:24:56;17.35;;;7.90;;
21091;SDS011;10704;42.678;23.288;2023-07-13T02:27:22;15.98;;;8.23;;
21091;SDS011;10704;42.678;23.288;2023-07-13T02:29:49;15.95;;;7.80;;
21091;SDS011;10704;42.678;23.288;2023-07-13T02:32:16;13.35;;;7.57;;
21091;SDS011;10704;42.678;23.288;2023-07-13T02:34:43;14.90;;;8.73;;
21091;SDS011;10704;42.678;23.288;2023-07-13T02:37:09;15.77;;;8.55;;
21091;SDS011;10704;42.678;23.288;2023-07-13T02:39:35;10.52;;;7.60;;
21091;SDS011;10704;42.678;23.288;2023-07-13T02:42:02;13.30;;;7.05;;
21091;SDS011;10704;42.678;23.288;2023-07-13T02:44:28;13.10;;;7.65;;
21091;SDS011;10704;42.678;23.288;2023-07-13T02:46:55;14.45;;;8.30;;
21091;SDS011;10704;42.678;23.288;2023-07-13T02:49:20;13.68;;;7.97;;
21091;SDS011;10704;42.678;23.288;2023-07-13T02:51:46;15.75;;;7.93;;
21091;SDS011;10704;42.678;23.288;2023-07-13T02:54:12;15.10;;;8.02;;
21091;SDS011;10704;42.678;23.288;2023-07-13T02:56:39;13.82;;;8.10;;
21091;SDS011;10704;42.678;23.288;2023-07-13T02:59:05;13.43;;;8.35;;
21091;SDS011;10704;42.678;23.288;2023-07-13T03:01:31;14.60;;;8.85;;
21091;SDS011;10704;42.678;23.288;2023-07-13T03:04:01;12.07;;;8.48;;
21091;SDS011;10704;42.678;23.288;2023-07-13T03:06:30;10.48;;;8.02;;
21091;SDS011;10704;42.678;23.288;2023-07-13T03:08:56;13.20;;;8.10;;
21091;SDS011;10704;42.678;23.288;2023-07-13T03:11:22;12.63;;;8.15;;
21091;SDS011;10704;42.678;23.288;2023-07-13T03:13:59;18.00;;;8.77;;
21091;SDS011;10704;42.678;23.288;2023-07-13T03:16:28;12.52;;;8.23;;
21091;SDS011;10704;42.678;23.288;2023-07-13T03:18:54;13.18;;;9.80;;
21091;SDS011;10704;42.678;23.288;2023-07-13T03:21:21;13.00;;;8.93;;
21091;SDS011;10704;42.678;23.288;2023-07-13T03:23:47;15.10;;;9.00;;
21091;SDS011;10704;42.678;23.288;2023-07-13T03:26:16;17.15;;;8.52;;
21091;SDS011;10704;42.678;23.288;2023-07-13T03:28:44;13.13;;;9.02;;
21091;SDS011;10704;42.678;23.288;2023-07-13T03:31:16;17.25;;;9.02;;
21091;SDS011;10704;42.678;23.288;2023-07-13T03:33:44;13.80;;;8.25;;
21091;SDS011;10704;42.678;23.288;2023-07-13T03:36:13;16.23;;;8.82;;
21091;SDS011;10704;42.678;23.288;2023-07-13T03:38:56;15.70;;;9.38;;
21091;SDS011;10704;42.678;23.288;2023-07-13T03:41:29;14.25;;;9.30;;
21091;SDS011;10704;42.678;23.288;2023-07-13T03:43:57;18.77;;;9.90;;
21091;SDS011;10704;42.678;23.288;2023-07-13T03:46:25;13.25;;;9.43;;
21091;SDS011;10704;42.678;23.288;2023-07-13T03:48:51;19.00;;;9.98;;
21091;SDS011;10704;42.678;23.288;2023-07-13T03:51:17;13.93;;;9.38;;
21091;SDS011;10704;42.678;23.288;2023-07-13T03:53:44;19.23;;;9.68;;
21091;SDS011;10704;42.678;23.288;2023-07-13T03:56:13;15.15;;;9.40;;
21091;SDS011;10704;42.678;23.288;2023-07-13T03:58:41;15.70;;;9.75;;
21091;SDS011;10704;42.678;23.288;2023-07-13T04:01:19;20.15;;;10.32;;
21091;SDS011;10704;42.678;23.288;2023-07-13T04:03:46;15.77;;;9.90;;
21091;SDS011;10704;42.678;23.288;2023-07-13T04:06:23;17.35;;;10.05;;
21091;SDS011;10704;42.678;23.288;2023-07-13T04:08:53;17.67;;;9.10;;
21091;SDS011;10704;42.678;23.288;2023-07-13T04:11:21;16.55;;;9.13;;
21091;SDS011;10704;42.678;23.288;2023-07-13T04:13:49;19.45;;;9.98;;
21091;SDS011;10704;42.678;23.288;2023-07-13T04:16:16;14.73;;;10.20;;
21091;SDS011;10704;42.678;23.288;2023-07-13T04:18:43;19.00;;;10.52;;
21091;SDS011;10704;42.678;23.288;2023-07-13T04:21:10;20.60;;;10.60;;
21091;SDS011;10704;42.678;23.288;2023-07-13T04:23:36;19.50;;;10.45;;
21091;SDS011;10704;42.678;23.288;2023-07-13T04:26:03;18.33;;;9.43;;
21091;SDS011;10704;42.678;23.288;2023-07-13T04:28:29;19.48;;;11.65;;
21091;SDS011;10704;42.678;23.288;2023-07-13T04:30:55;16.58;;;10.98;;
21091;SDS011;10704;42.678;23.288;2023-07-13T04:33:21;21.80;;;11.95;;
21091;SDS011;10704;42.678;23.288;2023-07-13T04:35:51;17.63;;;10.63;;
21091;SDS011;10704;42.678;23.288;2023-07-13T04:38:25;21.35;;;11.60;;
21091;SDS011;10704;42.678;23.288;2023-07-13T04:40:56;20.35;;;12.07;;
21091;SDS011;10704;42.678;23.288;2023-07-13T04:43:24;17.02;;;11.15;;
21091;SDS011;10704;42.678;23.288;2023-07-13T04:45:51;15.05;;;11.00;;
21091;SDS011;10704;42.678;23.288;2023-07-13T04:48:18;20.73;;;11.98;;
21091;SDS011;10704;42.678;23.288;2023-07-13T04:50:44;16.98;;;11.80;;
21091;SDS011;10704;42.678;23.288;2023-07-13T04:53:11;17.55;;;12.25;;
21091;SDS011;10704;42.678;23.288;2023-07-13T04:55:37;18.85;;;10.93;;
21091;SDS011;10704;42.678;23.288;2023-07-13T04:58:03;21.58;;;13.05;;
21091;SDS011;10704;42.678;23.288;2023-07-13T05:00:30;16.63;;;11.85;;
21091;SDS011;10704;42.678;23.288;2023-07-13T05:02:56;19.17;;;11.23;;
21091;SDS011;10704;42.678;23.288;2023-07-13T05:05:24;19.27;;;10.65;;
21091;SDS011;10704;42.678;23.288;2023-07-13T05:07:50;22.02;;;11.90;;
21091;SDS011;10704;42.678;23.288;2023-07-13T05:10:17;17.90;;;11.43;;
21091;SDS011;10704;42.678;23.288;2023-07-13T05:12:43;26.35;;;13.05;;
21091;SDS011;10704;42.678;23.288;2023-07-13T05:15:09;15.85;;;12.27;;
21091;SDS011;10704;42.678;23.288;2023-07-13T05:17:35;21.60;;;12.07;;
21091;SDS011;10704;42.678;23.288;2023-07-13T05:20:01;19.95;;;12.38;;
21091;SDS011;10704;42.678;23.288;2023-07-13T05:22:27;20.65;;;12.85;;
21091;SDS011;10704;42.678;23.288;2023-07-13T05:24:53;16.50;;;12.40;;
21091;SDS011;10704;42.678;23.288;2023-07-13T05:27:19;26.50;;;11.85;;
21091;SDS011;10704;42.678;23.288;2023-07-13T05:29:45;15.48;;;10.55;;
21091;SDS011;10704;42.678;23.288;2023-07-13T05:32:11;19.20;;;12.07;;
21091;SDS011;10704;42.678;23.288;2023-07-13T05:34:37;19.00;;;12.35;;
21091;SDS011;10704;42.678;23.288;2023-07-13T05:37:02;18.42;;;11.93;;
21091;SDS011;10704;42.678;23.288;2023-07-13T05:39:29;19.65;;;13.02;;
21091;SDS011;10704;42.678;23.288;2023-07-13T05:41:55;16.13;;;11.88;;
21091;SDS011;10704;42.678;23.288;2023-07-13T05:44:21;17.73;;;12.32;;
21091;SDS011;10704;42.678;23.288;2023-07-13T05:46:47;15.68;;;12.50;;
21091;SDS011;10704;42.678;23.288;2023-07-13T05:49:13;21.95;;;11.85;;
21091;SDS011;10704;42.678;23.288;2023-07-13T05:51:38;19.70;;;12.65;;
21091;SDS011;10704;42.678;23.288;2023-07-13T05:54:04;20.13;;;12.98;;
21091;SDS011;10704;42.678;23.288;2023-07-13T05:56:30;17.45;;;12.20;;
21091;SDS011;10704;42.678;23.288;2023-07-13T05:58:56;17.30;;;12.45;;
21091;SDS011;10704;42.678;23.288;2023-07-13T06:01:22;18.98;;;12.10;;
21091;SDS011;10704;42.678;23.288;2023-07-13T06:03:48;30.65;;;12.73;;
21091;SDS011;10704;42.678;23.288;2023-07-13T06:06:15;18.27;;;12.18;;
21091;SDS011;10704;42.678;23.288;2023-07-13T06:08:41;19.50;;;13.38;;
21091;SDS011;10704;42.678;23.288;2023-07-13T06:11:14;17.95;;;12.73;;
21091;SDS011;10704;42.678;23.288;2023-07-13T06:13:45;24.02;;;13.73;;
21091;SDS011;10704;42.678;23.288;2023-07-13T06:16:11;24.58;;;13.98;;
21091;SDS011;10704;42.678;23.288;2023-07-13T06:18:38;16.67;;;13.63;;
21091;SDS011;10704;42.678;23.288;2023-07-13T06:21:09;21.65;;;12.70;;
21091;SDS011;10704;42.678;23.288;2023-07-13T06:23:36;17.88;;;12.55;;
21091;SDS011;10704;42.678;23.288;2023-07-13T06:26:03;18.38;;;11.80;;
21091;SDS011;10704;42.678;23.288;2023-07-13T06:28:29;17.98;;;11.60;;
21091;SDS011;10704;42.678;23.288;2023-07-13T06:30:57;17.83;;;11.32;;
21091;SDS011;10704;42.678;23.288;2023-07-13T06:33:23;19.33;;;13.38;;
21091;SDS011;10704;42.678;23.288;2023-07-13T06:35:49;19.83;;;12.25;;
21091;SDS011;10704;42.678;23.288;2023-07-13T06:38:16;18.83;;;12.48;;
21091;SDS011;10704;42.678;23.288;2023-07-13T06:40:42;20.15;;;11.77;;
21091;SDS011;10704;42.678;23.288;2023-07-13T06:43:08;16.98;;;11.63;;
21091;SDS011;10704;42.678;23.288;2023-07-13T06:45:44;16.40;;;11.27;;
21091;SDS011;10704;42.678;23.288;2023-07-13T06:48:15;18.33;;;11.15;;
21091;SDS011;10704;42.678;23.288;2023-07-13T06:50:42;17.67;;;11.40;;
21091;SDS011;10704;42.678;23.288;2023-07-13T06:53:08;21.98;;;12.50;;
21091;SDS011;10704;42.678;23.288;2023-07-13T06:55:35;16.95;;;10.25;;
21091;SDS011;10704;42.678;23.288;2023-07-13T06:58:01;17.17;;;11.98;;
21091;SDS011;10704;42.678;23.288;2023-07-13T07:00:27;29.80;;;20.45;;
21091;SDS011;10704;42.678;23.288;2023-07-13T07:02:52;17.10;;;11.27;;
21091;SDS011;10704;42.678;23.288;2023-07-13T07:05:18;20.90;;;10.55;;
21091;SDS011;10704;42.678;23.288;2023-07-13T07:07:50;18.42;;;11.82;;
21091;SDS011;10704;42.678;23.288;2023-07-13T07:10:17;18.08;;;10.73;;
21091;SDS011;10704;42.678;23.288;2023-07-13T07:12:44;14.85;;;11.77;;
21091;SDS011;10704;42.678;23.288;2023-07-13T07:15:10;15.63;;;10.70;;
21091;SDS011;10704;42.678;23.288;2023-07-13T07:17:36;14.88;;;9.98;;
21091;SDS011;10704;42.678;23.288;2023-07-13T07:20:02;16.73;;;10.98;;
21091;SDS011;10704;42.678;23.288;2023-07-13T07:22:29;16.45;;;12.32;;
21091;SDS011;10704;42.678;23.288;2023-07-13T07:24:55;20.35;;;11.77;;
21091;SDS011;10704;42.678;23.288;2023-07-13T07:27:22;19.52;;;11.82;;
21091;SDS011;10704;42.678;23.288;2023-07-13T07:29:48;21.55;;;11.32;;
21091;SDS011;10704;42.678;23.288;2023-07-13T07:32:14;19.30;;;12.27;;
21091;SDS011;10704;42.678;23.288;2023-07-13T07:34:40;18.33;;;12.32;;
21091;SDS011;10704;42.678;23.288;2023-07-13T07:37:06;15.40;;;11.07;;
21091;SDS011;10704;42.678;23.288;2023-07-13T07:39:35;17.33;;;11.40;;
21091;SDS011;10704;42.678;23.288;2023-07-13T07:42:02;16.48;;;10.32;;
21091;SDS011;10704;42.678;23.288;2023-07-13T07:44:28;14.18;;;10.48;;
21091;SDS011;10704;42.678;23.288;2023-07-13T07:46:54;14.13;;;11.30;;
21091;SDS011;10704;42.678;23.288;2023-07-13T07:49:20;16.42;;;10.65;;
21091;SDS011;10704;42.678;23.288;2023-07-13T07:51:46;17.15;;;10.15;;
21091;SDS011;10704;42.678;23.288;2023-07-13T07:54:12;15.15;;;10.38;;
21091;SDS011;10704;42.678;23.288;2023-07-13T07:56:38;16.77;;;10.23;;
21091;SDS011;10704;42.678;23.288;2023-07-13T07:59:04;15.52;;;10.82;;
21091;SDS011;10704;42.678;23.288;2023-07-13T08:01:30;13.65;;;10.25;;
21091;SDS011;10704;42.678;23.288;2023-07-13T08:03:55;16.23;;;9.25;;
21091;SDS011;10704;42.678;23.288;2023-07-13T08:06:21;15.52;;;9.07;;
21091;SDS011;10704;42.678;23.288;2023-07-13T08:08:48;14.00;;;9.95;;
21091;SDS011;10704;42.678;23.288;2023-07-13T08:11:13;12.77;;;9.98;;
21091;SDS011;10704;42.678;23.288;2023-07-13T08:13:39;15.32;;;10.35;;
21091;SDS011;10704;42.678;23.288;2023-07-13T08:16:05;17.52;;;9.63;;
21091;SDS011;10704;42.678;23.288;2023-07-13T08:18:32;22.38;;;10.57;;
21091;SDS011;10704;42.678;23.288;2023-07-13T08:20:58;16.60;;;9.80;;
21091;SDS011;10704;42.678;23.288;2023-07-13T08:23:27;12.75;;;9.43;;
21091;SDS011;10704;42.678;23.288;2023-07-13T08:25:53;19.67;;;10.40;;
21091;SDS011;10704;42.678;23.288;2023-07-13T08:28:20;17.20;;;9.77;;
21091;SDS011;10704;42.678;23.288;2023-07-13T08:30:47;12.20;;;9.73;;
21091;SDS011;10704;42.678;23.288;2023-07-13T08:33:21;13.90;;;10.10;;
21091;SDS011;10704;42.678;23.288;2023-07-13T08:35:50;16.02;;;9.32;;
21091;SDS011;10704;42.678;23.288;2023-07-13T08:38:16;14.38;;;9.32;;
21091;SDS011;10704;42.678;23.288;2023-07-13T08:40:43;17.58;;;10.00;;
21091;SDS011;10704;42.678;23.288;2023-07-13T08:43:16;15.77;;;10.05;;
21091;SDS011;10704;42.678;23.288;2023-07-13T08:48:23;15.88;;;9.68;;
21091;SDS011;10704;42.678;23.288;2023-07-13T08:50:55;15.95;;;9.95;;
21091;SDS011;10704;42.678;23.288;2023-07-13T08:53:43;14.95;;;9.45;;
21091;SDS011;10704;42.678;23.288;2023-07-13T08:56:17;13.43;;;9.38;;
21091;SDS011;10704;42.678;23.288;2023-07-13T08:58:47;21.50;;;11.07;;
21091;SDS011;10704;42.678;23.288;2023-07-13T09:04:05;15.23;;;9.85;;
21091;SDS011;10704;42.678;23.288;2023-07-13T09:12:33;21.58;;;10.35;;
21091;SDS011;10704;42.678;23.288;2023-07-13T09:15:01;19.17;;;10.57;;
21091;SDS011;10704;42.678;23.288;2023-07-13T09:17:34;16.90;;;9.88;;
21091;SDS011;10704;42.678;23.288;2023-07-13T09:22:42;17.40;;;10.75;;
21091;SDS011;10704;42.678;23.288;2023-07-13T09:25:24;19.33;;;10.95;;
21091;SDS011;10704;42.678;23.288;2023-07-13T09:27:59;17.85;;;10.73;;
21091;SDS011;10704;42.678;23.288;2023-07-13T09:30:37;14.25;;;10.10;;
21091;SDS011;10704;42.678;23.288;2023-07-13T09:33:13;19.52;;;11.40;;
21091;SDS011;10704;42.678;23.288;2023-07-13T09:35:39;15.88;;;10.60;;
21091;SDS011;10704;42.678;23.288;2023-07-13T09:38:12;15.88;;;10.93;;
21091;SDS011;10704;42.678;23.288;2023-07-13T09:40:43;17.38;;;10.82;;
21091;SDS011;10704;42.678;23.288;2023-07-13T09:43:10;18.17;;;10.18;;
21091;SDS011;10704;42.678;23.288;2023-07-13T09:45:40;15.07;;;10.65;;
21091;SDS011;10704;42.678;23.288;2023-07-13T09:48:07;15.10;;;10.40;;
21091;SDS011;10704;42.678;23.288;2023-07-13T09:50:38;14.25;;;10.07;;
21091;SDS011;10704;42.678;23.288;2023-07-13T09:53:09;14.43;;;10.18;;
21091;SDS011;10704;42.678;23.288;2023-07-13T09:55:47;20.73;;;9.95;;
21091;SDS011;10704;42.678;23.288;2023-07-13T09:58:18;14.48;;;9.88;;
21091;SDS011;10704;42.678;23.288;2023-07-13T10:00:58;13.45;;;6.95;;
21091;SDS011;10704;42.678;23.288;2023-07-13T10:03:29;14.40;;;6.55;;
21091;SDS011;10704;42.678;23.288;2023-07-13T10:08:41;10.15;;;5.38;;
21091;SDS011;10704;42.678;23.288;2023-07-13T10:11:10;9.60;;;5.93;;
21091;SDS011;10704;42.678;23.288;2023-07-13T10:13:41;12.98;;;6.05;;
21091;SDS011;10704;42.678;23.288;2023-07-13T10:16:09;11.82;;;5.80;;
21091;SDS011;10704;42.678;23.288;2023-07-13T10:18:43;10.50;;;5.55;;
21091;SDS011;10704;42.678;23.288;2023-07-13T10:21:46;11.90;;;6.68;;
21091;SDS011;10704;42.678;23.288;2023-07-13T10:24:21;16.13;;;6.55;;
21091;SDS011;10704;42.678;23.288;2023-07-13T10:29:20;9.35;;;5.95;;
21091;SDS011;10704;42.678;23.288;2023-07-13T10:31:48;12.88;;;5.90;;
21091;SDS011;10704;42.678;23.288;2023-07-13T10:34:15;11.25;;;5.90;;
21091;SDS011;10704;42.678;23.288;2023-07-13T10:36:42;11.40;;;6.18;;
21091;SDS011;10704;42.678;23.288;2023-07-13T10:39:15;12.30;;;6.07;;
21091;SDS011;10704;42.678;23.288;2023-07-13T10:41:58;14.32;;;7.22;;
21091;SDS011;10704;42.678;23.288;2023-07-13T10:44:30;12.23;;;7.03;;
21091;SDS011;10704;42.678;23.288;2023-07-13T10:46:58;8.43;;;6.28;;
21091;SDS011;10704;42.678;23.288;2023-07-13T10:49:30;15.10;;;6.85;;
21091;SDS011;10704;42.678;23.288;2023-07-13T10:51:57;12.52;;;6.00;;
21091;SDS011;10704;42.678;23.288;2023-07-13T10:54:33;11.93;;;6.47;;
21091;SDS011;10704;42.678;23.288;2023-07-13T10:57:21;11.55;;;6.60;;
21091;SDS011;10704;42.678;23.288;2023-07-13T11:02:40;9.15;;;6.38;;
21091;SDS011;10704;42.678;23.288;2023-07-13T11:05:26;8.50;;;5.68;;
21091;SDS011;10704;42.678;23.288;2023-07-13T11:08:15;11.60;;;6.28;;
21091;SDS011;10704;42.678;23.288;2023-07-13T11:18:50;9.52;;;6.30;;
21091;SDS011;10704;42.678;23.288;2023-07-13T11:21:52;10.93;;;6.25;;
21091;SDS011;10704;42.678;23.288;2023-07-13T11:32:45;9.73;;;6.38;;
21091;SDS011;10704;42.678;23.288;2023-07-13T11:35:19;11.50;;;6.88;;
21091;SDS011;10704;42.678;23.288;2023-07-13T11:37:51;13.68;;;7.28;;
21091;SDS011;10704;42.678;23.288;2023-07-13T11:40:17;15.65;;;7.07;;
21091;SDS011;10704;42.678;23.288;2023-07-13T11:42:44;14.20;;;8.63;;
21091;SDS011;10704;42.678;23.288;2023-07-13T11:45:22;12.88;;;6.75;;
21091;SDS011;10704;42.678;23.288;2023-07-13T11:47:48;14.23;;;8.27;;
21091;SDS011;10704;42.678;23.288;2023-07-13T11:50:19;11.30;;;6.72;;
21091;SDS011;10704;42.678;23.288;2023-07-13T11:52:46;10.48;;;5.97;;
21091;SDS011;10704;42.678;23.288;2023-07-13T11:55:16;17.52;;;8.07;;
21091;SDS011;10704;42.678;23.288;2023-07-13T11:57:59;15.23;;;7.47;;
21091;SDS011;10704;42.678;23.288;2023-07-13T12:00:28;13.60;;;9.15;;
21091;SDS011;10704;42.678;23.288;2023-07-13T12:02:57;11.88;;;7.03;;
21091;SDS011;10704;42.678;23.288;2023-07-13T12:05:26;11.77;;;6.88;;
21091;SDS011;10704;42.678;23.288;2023-07-13T12:07:52;13.15;;;6.90;;
21091;SDS011;10704;42.678;23.288;2023-07-13T12:12:55;11.85;;;6.13;;
21091;SDS011;10704;42.678;23.288;2023-07-13T12:15:43;13.35;;;6.57;;
21091;SDS011;10704;42.678;23.288;2023-07-13T12:18:20;10.95;;;5.95;;
21091;SDS011;10704;42.678;23.288;2023-07-13T12:20:48;12.90;;;6.97;;
21091;SDS011;10704;42.678;23.288;2023-07-13T12:23:36;10.60;;;6.82;;
21091;SDS011;10704;42.678;23.288;2023-07-13T12:26:02;11.40;;;6.20;;
21091;SDS011;10704;42.678;23.288;2023-07-13T12:28:31;11.80;;;7.13;;
21091;SDS011;10704;42.678;23.288;2023-07-13T12:33:57;10.05;;;6.20;;
21091;SDS011;10704;42.678;23.288;2023-07-13T12:36:25;12.93;;;6.60;;
21091;SDS011;10704;42.678;23.288;2023-07-13T12:38:51;15.23;;;6.68;;
21091;SDS011;10704;42.678;23.288;2023-07-13T12:41:17;10.00;;;6.03;;
21091;SDS011;10704;42.678;23.288;2023-07-13T12:43:44;17.27;;;6.00;;
21091;SDS011;10704;42.678;23.288;2023-07-13T12:46:20;10.25;;;6.13;;
21091;SDS011;10704;42.678;23.288;2023-07-13T12:48:50;10.90;;;6.20;;
21091;SDS011;10704;42.678;23.288;2023-07-13T12:51:22;15.48;;;6.40;;
21091;SDS011;10704;42.678;23.288;2023-07-13T12:54:05;11.68;;;6.43;;
21091;SDS011;10704;42.678;23.288;2023-07-13T12:56:38;11.32;;;6.22;;
21091;SDS011;10704;42.678;23.288;2023-07-13T12:59:04;13.77;;;6.30;;
21091;SDS011;10704;42.678;23.288;2023-07-13T13:01:32;11.38;;;5.95;;
21091;SDS011;10704;42.678;23.288;2023-07-13T13:04:02;14.52;;;6.13;;
21091;SDS011;10704;42.678;23.288;2023-07-13T13:06:34;13.07;;;6.60;;
21091;SDS011;10704;42.678;23.288;2023-07-13T13:09:01;16.38;;;6.20;;
21091;SDS011;10704;42.678;23.288;2023-07-13T13:11:30;10.00;;;6.20;;
21091;SDS011;10704;42.678;23.288;2023-07-13T13:13:57;12.07;;;6.15;;
21091;SDS011;10704;42.678;23.288;2023-07-13T13:18:52;14.57;;;6.57;;
21091;SDS011;10704;42.678;23.288;2023-07-13T13:21:19;8.52;;;5.22;;
21091;SDS011;10704;42.678;23.288;2023-07-13T13:23:45;12.15;;;6.43;;
21091;SDS011;10704;42.678;23.288;2023-07-13T13:26:12;11.18;;;5.15;;
21091;SDS011;10704;42.678;23.288;2023-07-13T13:28:41;10.10;;;5.57;;
21091;SDS011;10704;42.678;23.288;2023-07-13T13:31:08;10.80;;;6.68;;
21091;SDS011;10704;42.678;23.288;2023-07-13T13:33:37;11.73;;;5.88;;
21091;SDS011;10704;42.678;23.288;2023-07-13T13:36:18;10.90;;;6.25;;
21091;SDS011;10704;42.678;23.288;2023-07-13T13:38:47;12.85;;;5.70;;
21091;SDS011;10704;42.678;23.288;2023-07-13T13:41:14;8.48;;;5.68;;
21091;SDS011;10704;42.678;23.288;2023-07-13T13:43:41;15.45;;;6.53;;
21091;SDS011;10704;42.678;23.288;2023-07-13T13:46:18;9.45;;;5.70;;
21091;SDS011;10704;42.678;23.288;2023-07-13T13:48:47;13.20;;;5.43;;
21091;SDS011;10704;42.678;23.288;2023-07-13T13:53:45;12.88;;;6.20;;
21091;SDS011;10704;42.678;23.288;2023-07-13T13:56:12;11.05;;;5.22;;
21091;SDS011;10704;42.678;23.288;2023-07-13T13:58:39;11.35;;;5.80;;
21091;SDS011;10704;42.678;23.288;2023-07-13T14:01:28;10.23;;;5.40;;
21091;SDS011;10704;42.678;23.288;2023-07-13T14:03:54;9.90;;;5.68;;
21091;SDS011;10704;42.678;23.288;2023-07-13T14:06:20;11.80;;;5.82;;
21091;SDS011;10704;42.678;23.288;2023-07-13T14:08:45;11.00;;;6.03;;
21091;SDS011;10704;42.678;23.288;2023-07-13T14:11:13;17.83;;;6.13;;
21091;SDS011;10704;42.678;23.288;2023-07-13T14:13:42;13.70;;;7.35;;
21091;SDS011;10704;42.678;23.288;2023-07-13T14:16:12;14.38;;;5.50;;
21091;SDS011;10704;42.678;23.288;2023-07-13T14:18:43;14.68;;;5.63;;
21091;SDS011;10704;42.678;23.288;2023-07-13T14:21:17;16.65;;;5.97;;
21091;SDS011;10704;42.678;23.288;2023-07-13T14:23:45;12.18;;;5.45;;
21091;SDS011;10704;42.678;23.288;2023-07-13T14:26:12;14.57;;;6.63;;
21091;SDS011;10704;42.678;23.288;2023-07-13T14:28:44;12.32;;;5.88;;
21091;SDS011;10704;42.678;23.288;2023-07-13T14:31:12;14.32;;;5.90;;
21091;SDS011;10704;42.678;23.288;2023-07-13T14:33:39;12.60;;;5.97;;
21091;SDS011;10704;42.678;23.288;2023-07-13T14:36:13;16.58;;;6.22;;
21091;SDS011;10704;42.678;23.288;2023-07-13T14:38:58;13.77;;;6.93;;
21091;SDS011;10704;42.678;23.288;2023-07-13T14:41:25;11.85;;;6.07;;
21091;SDS011;10704;42.678;23.288;2023-07-13T14:43:52;14.60;;;7.22;;
21091;SDS011;10704;42.678;23.288;2023-07-13T14:46:29;12.10;;;6.53;;
21091;SDS011;10704;42.678;23.288;2023-07-13T14:49:03;9.77;;;5.38;;
21091;SDS011;10704;42.678;23.288;2023-07-13T14:51:31;11.75;;;5.70;;
21091;SDS011;10704;42.678;23.288;2023-07-13T14:54:00;13.25;;;6.65;;
21091;SDS011;10704;42.678;23.288;2023-07-13T14:56:28;10.27;;;5.93;;
21091;SDS011;10704;42.678;23.288;2023-07-13T14:58:54;12.57;;;6.10;;
21091;SDS011;10704;42.678;23.288;2023-07-13T15:01:20;9.57;;;5.55;;
21091;SDS011;10704;42.678;23.288;2023-07-13T15:03:48;11.63;;;6.10;;
21091;SDS011;10704;42.678;23.288;2023-07-13T15:06:16;14.95;;;6.55;;
21091;SDS011;10704;42.678;23.288;2023-07-13T15:08:42;11.27;;;6.25;;
21091;SDS011;10704;42.678;23.288;2023-07-13T15:11:08;14.07;;;6.68;;
21091;SDS011;10704;42.678;23.288;2023-07-13T15:13:37;13.98;;;6.68;;
21091;SDS011;10704;42.678;23.288;2023-07-13T15:16:04;15.38;;;5.65;;
21091;SDS011;10704;42.678;23.288;2023-07-13T15:18:40;9.65;;;6.22;;